sensor_id;sensor_type;location;lat;lon;timestamp;P1;durP1;ratioP1;P2;durP2;ratioP2
80229;SDS011;69540;42.136;24.742;2023-07-24T00:01:16;4.30;;;3.90;;
80229;SDS011;69540;42.136;24.742;2023-07-24T00:03:43;4.38;;;3.97;;
80229;SDS011;69540;42.136;24.742;2023-07-24T00:06:09;4.20;;;3.78;;
80229;SDS011;69540;42.136;24.742;2023-07-24T00:08:35;4.65;;;4.25;;
80229;SDS011;69540;42.136;24.742;2023-07-24T00:11:00;4.32;;;4.00;;
80229;SDS011;69540;42.136;24.742;2023-07-24T00:13:28;3.95;;;3.65;;
80229;SDS011;69540;42.136;24.742;2023-07-24T00:15:53;3.92;;;3.63;;
80229;SDS011;69540;42.136;24.742;2023-07-24T00:18:19;4.20;;;3.80;;
80229;SDS011;69540;42.136;24.742;2023-07-24T00:20:44;3.55;;;3.25;;
80229;SDS011;69540;42.136;24.742;2023-07-24T00:23:10;4.05;;;3.75;;
80229;SDS011;69540;42.136;24.742;2023-07-24T00:25:36;3.72;;;3.42;;
80229;SDS011;69540;42.136;24.742;2023-07-24T00:28:02;4.50;;;4.03;;
80229;SDS011;69540;42.136;24.742;2023-07-24T00:30:28;3.97;;;3.67;;
80229;SDS011;69540;42.136;24.742;2023-07-24T00:32:53;4.32;;;3.92;;
80229;SDS011;69540;42.136;24.742;2023-07-24T00:35:19;4.63;;;4.10;;
80229;SDS011;69540;42.136;24.742;2023-07-24T00:37:45;4.00;;;3.70;;
80229;SDS011;69540;42.136;24.742;2023-07-24T00:40:10;4.55;;;4.13;;
80229;SDS011;69540;42.136;24.742;2023-07-24T00:42:36;4.32;;;3.92;;
80229;SDS011;69540;42.136;24.742;2023-07-24T00:45:02;4.43;;;4.03;;
80229;SDS011;69540;42.136;24.742;2023-07-24T00:47:28;4.13;;;3.78;;
80229;SDS011;69540;42.136;24.742;2023-07-24T00:49:54;4.40;;;4.03;;
80229;SDS011;69540;42.136;24.742;2023-07-24T00:52:20;4.70;;;4.30;;
80229;SDS011;69540;42.136;24.742;2023-07-24T00:54:46;4.35;;;3.95;;
80229;SDS011;69540;42.136;24.742;2023-07-24T00:57:12;4.10;;;3.80;;
80229;SDS011;69540;42.136;24.742;2023-07-24T00:59:38;4.07;;;3.67;;
80229;SDS011;69540;42.136;24.742;2023-07-24T01:02:04;3.90;;;3.60;;
80229;SDS011;69540;42.136;24.742;2023-07-24T01:04:30;4.22;;;3.90;;
80229;SDS011;69540;42.136;24.742;2023-07-24T01:06:55;4.70;;;4.03;;
80229;SDS011;69540;42.136;24.742;2023-07-24T01:09:21;4.28;;;3.88;;
80229;SDS011;69540;42.136;24.742;2023-07-24T01:11:50;4.38;;;3.97;;
80229;SDS011;69540;42.136;24.742;2023-07-24T01:14:23;4.78;;;4.28;;
80229;SDS011;69540;42.136;24.742;2023-07-24T01:16:55;4.35;;;3.95;;
80229;SDS011;69540;42.136;24.742;2023-07-24T01:22:12;4.38;;;3.97;;
80229;SDS011;69540;42.136;24.742;2023-07-24T01:27:23;4.00;;;3.70;;
80229;SDS011;69540;42.136;24.742;2023-07-24T01:29:48;4.43;;;4.03;;
80229;SDS011;69540;42.136;24.742;2023-07-24T01:32:14;3.78;;;3.47;;
80229;SDS011;69540;42.136;24.742;2023-07-24T01:34:40;4.20;;;3.80;;
80229;SDS011;69540;42.136;24.742;2023-07-24T01:37:06;4.40;;;4.00;;
80229;SDS011;69540;42.136;24.742;2023-07-24T01:39:32;3.88;;;3.58;;
80229;SDS011;69540;42.136;24.742;2023-07-24T01:41:59;4.07;;;3.75;;
80229;SDS011;69540;42.136;24.742;2023-07-24T01:44:25;4.38;;;3.85;;
80229;SDS011;69540;42.136;24.742;2023-07-24T01:46:51;4.25;;;3.80;;
80229;SDS011;69540;42.136;24.742;2023-07-24T01:49:17;4.50;;;4.10;;
80229;SDS011;69540;42.136;24.742;2023-07-24T01:51:42;4.38;;;3.97;;
80229;SDS011;69540;42.136;24.742;2023-07-24T01:54:08;4.18;;;3.78;;
80229;SDS011;69540;42.136;24.742;2023-07-24T01:56:35;3.97;;;3.60;;
80229;SDS011;69540;42.136;24.742;2023-07-24T01:59:02;3.85;;;3.50;;
80229;SDS011;69540;42.136;24.742;2023-07-24T02:01:28;3.83;;;3.53;;
80229;SDS011;69540;42.136;24.742;2023-07-24T02:03:53;4.03;;;3.63;;
80229;SDS011;69540;42.136;24.742;2023-07-24T02:06:19;4.05;;;3.72;;
80229;SDS011;69540;42.136;24.742;2023-07-24T02:08:45;4.18;;;3.78;;
80229;SDS011;69540;42.136;24.742;2023-07-24T02:11:14;4.18;;;3.85;;
80229;SDS011;69540;42.136;24.742;2023-07-24T02:13:42;4.07;;;3.78;;
80229;SDS011;69540;42.136;24.742;2023-07-24T02:16:09;3.92;;;3.63;;
80229;SDS011;69540;42.136;24.742;2023-07-24T02:18:35;3.95;;;3.65;;
80229;SDS011;69540;42.136;24.742;2023-07-24T02:21:01;3.70;;;3.40;;
80229;SDS011;69540;42.136;24.742;2023-07-24T02:23:27;3.72;;;3.38;;
80229;SDS011;69540;42.136;24.742;2023-07-24T02:25:52;3.97;;;3.67;;
80229;SDS011;69540;42.136;24.742;2023-07-24T02:28:18;3.90;;;3.50;;
80229;SDS011;69540;42.136;24.742;2023-07-24T02:30:43;3.78;;;3.47;;
80229;SDS011;69540;42.136;24.742;2023-07-24T02:33:11;3.92;;;3.63;;
80229;SDS011;69540;42.136;24.742;2023-07-24T02:35:40;3.97;;;3.65;;
80229;SDS011;69540;42.136;24.742;2023-07-24T02:38:06;4.10;;;3.80;;
80229;SDS011;69540;42.136;24.742;2023-07-24T02:40:32;4.00;;;3.60;;
80229;SDS011;69540;42.136;24.742;2023-07-24T02:42:57;3.80;;;3.50;;
80229;SDS011;69540;42.136;24.742;2023-07-24T02:45:23;4.18;;;3.78;;
80229;SDS011;69540;42.136;24.742;2023-07-24T02:47:49;4.07;;;3.78;;
80229;SDS011;69540;42.136;24.742;2023-07-24T02:50:14;3.90;;;3.60;;
80229;SDS011;69540;42.136;24.742;2023-07-24T02:52:40;3.58;;;3.28;;
80229;SDS011;69540;42.136;24.742;2023-07-24T02:55:06;3.80;;;3.50;;
80229;SDS011;69540;42.136;24.742;2023-07-24T02:57:31;3.85;;;3.55;;
80229;SDS011;69540;42.136;24.742;2023-07-24T02:59:57;4.03;;;3.72;;
80229;SDS011;69540;42.136;24.742;2023-07-24T03:02:23;3.80;;;3.50;;
80229;SDS011;69540;42.136;24.742;2023-07-24T03:04:48;3.90;;;3.58;;
80229;SDS011;69540;42.136;24.742;2023-07-24T03:07:14;3.55;;;3.25;;
80229;SDS011;69540;42.136;24.742;2023-07-24T03:09:39;3.80;;;3.50;;
80229;SDS011;69540;42.136;24.742;2023-07-24T03:12:05;4.15;;;3.75;;
80229;SDS011;69540;42.136;24.742;2023-07-24T03:14:31;4.10;;;3.80;;
80229;SDS011;69540;42.136;24.742;2023-07-24T03:16:57;3.80;;;3.42;;
80229;SDS011;69540;42.136;24.742;2023-07-24T03:19:22;3.70;;;3.40;;
80229;SDS011;69540;42.136;24.742;2023-07-24T03:21:48;3.72;;;3.42;;
80229;SDS011;69540;42.136;24.742;2023-07-24T03:24:13;3.65;;;3.35;;
80229;SDS011;69540;42.136;24.742;2023-07-24T03:26:39;3.55;;;3.25;;
80229;SDS011;69540;42.136;24.742;2023-07-24T03:29:05;3.88;;;3.50;;
80229;SDS011;69540;42.136;24.742;2023-07-24T03:31:30;3.65;;;3.35;;
80229;SDS011;69540;42.136;24.742;2023-07-24T03:33:56;3.53;;;3.22;;
80229;SDS011;69540;42.136;24.742;2023-07-24T03:36:22;3.88;;;3.53;;
80229;SDS011;69540;42.136;24.742;2023-07-24T03:38:47;4.07;;;3.78;;
80229;SDS011;69540;42.136;24.742;2023-07-24T03:41:13;4.15;;;3.75;;
80229;SDS011;69540;42.136;24.742;2023-07-24T03:43:39;3.90;;;3.60;;
80229;SDS011;69540;42.136;24.742;2023-07-24T03:46:04;3.88;;;3.42;;
80229;SDS011;69540;42.136;24.742;2023-07-24T03:48:30;5.25;;;4.75;;
80229;SDS011;69540;42.136;24.742;2023-07-24T03:50:59;6.85;;;4.90;;
80229;SDS011;69540;42.136;24.742;2023-07-24T03:53:25;7.15;;;5.20;;
80229;SDS011;69540;42.136;24.742;2023-07-24T03:55:51;6.50;;;5.43;;
80229;SDS011;69540;42.136;24.742;2023-07-24T03:58:17;7.57;;;5.45;;
80229;SDS011;69540;42.136;24.742;2023-07-24T04:00:43;6.40;;;5.70;;
80229;SDS011;69540;42.136;24.742;2023-07-24T04:03:09;6.05;;;5.30;;
80229;SDS011;69540;42.136;24.742;2023-07-24T04:05:35;6.22;;;5.63;;
80229;SDS011;69540;42.136;24.742;2023-07-24T04:08:01;6.50;;;5.65;;
80229;SDS011;69540;42.136;24.742;2023-07-24T04:10:27;8.27;;;6.97;;
80229;SDS011;69540;42.136;24.742;2023-07-24T04:12:53;9.05;;;6.93;;
80229;SDS011;69540;42.136;24.742;2023-07-24T04:15:19;10.32;;;7.53;;
80229;SDS011;69540;42.136;24.742;2023-07-24T04:17:45;8.70;;;7.80;;
80229;SDS011;69540;42.136;24.742;2023-07-24T04:20:11;10.40;;;8.00;;
80229;SDS011;69540;42.136;24.742;2023-07-24T04:22:36;9.85;;;7.55;;
80229;SDS011;69540;42.136;24.742;2023-07-24T04:25:02;9.30;;;7.40;;
80229;SDS011;69540;42.136;24.742;2023-07-24T04:27:28;9.82;;;7.90;;
80229;SDS011;69540;42.136;24.742;2023-07-24T04:29:54;10.00;;;7.97;;
80229;SDS011;69540;42.136;24.742;2023-07-24T04:32:20;10.18;;;8.30;;
80229;SDS011;69540;42.136;24.742;2023-07-24T04:34:45;9.30;;;8.25;;
80229;SDS011;69540;42.136;24.742;2023-07-24T04:37:11;9.02;;;7.80;;
80229;SDS011;69540;42.136;24.742;2023-07-24T04:39:39;9.70;;;8.40;;
80229;SDS011;69540;42.136;24.742;2023-07-24T04:42:05;11.30;;;8.30;;
80229;SDS011;69540;42.136;24.742;2023-07-24T04:44:31;11.15;;;8.77;;
80229;SDS011;69540;42.136;24.742;2023-07-24T04:46:57;10.95;;;8.25;;
80229;SDS011;69540;42.136;24.742;2023-07-24T04:49:23;9.68;;;8.30;;
80229;SDS011;69540;42.136;24.742;2023-07-24T04:51:49;9.93;;;8.18;;
80229;SDS011;69540;42.136;24.742;2023-07-24T04:54:15;11.35;;;8.35;;
80229;SDS011;69540;42.136;24.742;2023-07-24T04:56:42;9.52;;;8.07;;
80229;SDS011;69540;42.136;24.742;2023-07-24T04:59:08;9.18;;;8.20;;
80229;SDS011;69540;42.136;24.742;2023-07-24T05:01:34;9.18;;;7.95;;
80229;SDS011;69540;42.136;24.742;2023-07-24T05:03:59;9.73;;;8.13;;
80229;SDS011;69540;42.136;24.742;2023-07-24T05:06:25;10.05;;;7.10;;
80229;SDS011;69540;42.136;24.742;2023-07-24T05:08:54;10.00;;;7.72;;
80229;SDS011;69540;42.136;24.742;2023-07-24T05:11:20;9.35;;;7.90;;
80229;SDS011;69540;42.136;24.742;2023-07-24T05:13:45;11.57;;;7.82;;
80229;SDS011;69540;42.136;24.742;2023-07-24T05:16:11;10.30;;;8.30;;
80229;SDS011;69540;42.136;24.742;2023-07-24T05:18:37;9.98;;;7.82;;
80229;SDS011;69540;42.136;24.742;2023-07-24T05:21:02;8.90;;;7.90;;
80229;SDS011;69540;42.136;24.742;2023-07-24T05:23:28;9.15;;;7.70;;
80229;SDS011;69540;42.136;24.742;2023-07-24T05:26:00;8.77;;;7.28;;
80229;SDS011;69540;42.136;24.742;2023-07-24T05:28:27;9.38;;;7.82;;
80229;SDS011;69540;42.136;24.742;2023-07-24T05:30:53;9.13;;;7.32;;
80229;SDS011;69540;42.136;24.742;2023-07-24T05:33:19;9.18;;;7.72;;
80229;SDS011;69540;42.136;24.742;2023-07-24T05:35:45;8.85;;;7.65;;
80229;SDS011;69540;42.136;24.742;2023-07-24T05:38:10;8.80;;;7.65;;
80229;SDS011;69540;42.136;24.742;2023-07-24T05:40:36;8.50;;;7.38;;
80229;SDS011;69540;42.136;24.742;2023-07-24T05:43:02;8.45;;;7.38;;
80229;SDS011;69540;42.136;24.742;2023-07-24T05:45:29;8.00;;;7.20;;
80229;SDS011;69540;42.136;24.742;2023-07-24T05:47:54;8.82;;;7.68;;
80229;SDS011;69540;42.136;24.742;2023-07-24T05:50:20;8.80;;;7.18;;
80229;SDS011;69540;42.136;24.742;2023-07-24T05:52:45;10.52;;;7.38;;
80229;SDS011;69540;42.136;24.742;2023-07-24T05:55:11;8.32;;;7.32;;
80229;SDS011;69540;42.136;24.742;2023-07-24T05:57:37;8.48;;;7.35;;
80229;SDS011;69540;42.136;24.742;2023-07-24T06:00:03;8.52;;;6.97;;
80229;SDS011;69540;42.136;24.742;2023-07-24T06:02:29;8.35;;;6.85;;
80229;SDS011;69540;42.136;24.742;2023-07-24T06:04:55;9.27;;;7.32;;
80229;SDS011;69540;42.136;24.742;2023-07-24T06:07:21;7.88;;;7.07;;
80229;SDS011;69540;42.136;24.742;2023-07-24T06:09:46;7.57;;;6.78;;
80229;SDS011;69540;42.136;24.742;2023-07-24T06:12:12;8.45;;;6.50;;
80229;SDS011;69540;42.136;24.742;2023-07-24T06:14:38;7.88;;;7.07;;
80229;SDS011;69540;42.136;24.742;2023-07-24T06:17:05;8.10;;;6.88;;
80229;SDS011;69540;42.136;24.742;2023-07-24T06:19:30;7.45;;;6.57;;
80229;SDS011;69540;42.136;24.742;2023-07-24T06:21:56;7.97;;;6.70;;
80229;SDS011;69540;42.136;24.742;2023-07-24T06:24:22;7.80;;;6.80;;
80229;SDS011;69540;42.136;24.742;2023-07-24T06:26:48;7.50;;;6.55;;
80229;SDS011;69540;42.136;24.742;2023-07-24T06:29:14;7.05;;;6.35;;
80229;SDS011;69540;42.136;24.742;2023-07-24T06:31:40;7.38;;;6.63;;
80229;SDS011;69540;42.136;24.742;2023-07-24T06:34:06;8.63;;;7.05;;
80229;SDS011;69540;42.136;24.742;2023-07-24T06:36:31;7.80;;;6.40;;
80229;SDS011;69540;42.136;24.742;2023-07-24T06:38:57;7.30;;;6.50;;
80229;SDS011;69540;42.136;24.742;2023-07-24T06:41:23;8.15;;;6.22;;
80229;SDS011;69540;42.136;24.742;2023-07-24T06:43:49;9.70;;;6.93;;
80229;SDS011;69540;42.136;24.742;2023-07-24T06:46:15;8.25;;;6.78;;
80229;SDS011;69540;42.136;24.742;2023-07-24T06:48:40;8.95;;;6.97;;
80229;SDS011;69540;42.136;24.742;2023-07-24T06:51:06;7.65;;;6.55;;
80229;SDS011;69540;42.136;24.742;2023-07-24T06:53:31;6.63;;;5.93;;
80229;SDS011;69540;42.136;24.742;2023-07-24T06:55:57;7.35;;;5.82;;
80229;SDS011;69540;42.136;24.742;2023-07-24T06:58:23;7.93;;;6.50;;
80229;SDS011;69540;42.136;24.742;2023-07-24T07:00:48;6.75;;;6.05;;
80229;SDS011;69540;42.136;24.742;2023-07-24T07:03:14;7.30;;;6.20;;
80229;SDS011;69540;42.136;24.742;2023-07-24T07:05:39;8.73;;;6.53;;
80229;SDS011;69540;42.136;24.742;2023-07-24T07:08:05;7.43;;;5.90;;
80229;SDS011;69540;42.136;24.742;2023-07-24T07:10:31;7.43;;;6.05;;
80229;SDS011;69540;42.136;24.742;2023-07-24T07:12:57;8.10;;;6.05;;
80229;SDS011;69540;42.136;24.742;2023-07-24T07:15:23;8.93;;;6.35;;
80229;SDS011;69540;42.136;24.742;2023-07-24T07:17:48;7.25;;;6.10;;
80229;SDS011;69540;42.136;24.742;2023-07-24T07:20:14;6.50;;;5.72;;
80229;SDS011;69540;42.136;24.742;2023-07-24T07:22:39;7.78;;;6.10;;
80229;SDS011;69540;42.136;24.742;2023-07-24T07:25:05;8.50;;;6.13;;
80229;SDS011;69540;42.136;24.742;2023-07-24T07:27:31;7.18;;;6.35;;
80229;SDS011;69540;42.136;24.742;2023-07-24T07:29:57;9.32;;;5.93;;
80229;SDS011;69540;42.136;24.742;2023-07-24T07:32:22;6.68;;;5.97;;
80229;SDS011;69540;42.136;24.742;2023-07-24T07:34:48;9.07;;;6.10;;
80229;SDS011;69540;42.136;24.742;2023-07-24T07:37:14;5.97;;;5.38;;
80229;SDS011;69540;42.136;24.742;2023-07-24T07:39:39;6.50;;;5.80;;
80229;SDS011;69540;42.136;24.742;2023-07-24T07:42:05;6.70;;;6.00;;
80229;SDS011;69540;42.136;24.742;2023-07-24T07:44:30;7.28;;;6.50;;
80229;SDS011;69540;42.136;24.742;2023-07-24T07:46:56;6.50;;;5.80;;
80229;SDS011;69540;42.136;24.742;2023-07-24T07:49:22;6.65;;;5.80;;
80229;SDS011;69540;42.136;24.742;2023-07-24T07:51:47;6.70;;;5.93;;
80229;SDS011;69540;42.136;24.742;2023-07-24T07:54:13;6.65;;;5.95;;
80229;SDS011;69540;42.136;24.742;2023-07-24T07:56:40;6.55;;;5.78;;
80229;SDS011;69540;42.136;24.742;2023-07-24T07:59:06;7.15;;;5.65;;
80229;SDS011;69540;42.136;24.742;2023-07-24T08:01:32;8.63;;;6.35;;
80229;SDS011;69540;42.136;24.742;2023-07-24T08:03:58;6.32;;;5.72;;
80229;SDS011;69540;42.136;24.742;2023-07-24T08:06:23;8.82;;;6.10;;
80229;SDS011;69540;42.136;24.742;2023-07-24T08:08:49;9.55;;;6.00;;
80229;SDS011;69540;42.136;24.742;2023-07-24T08:11:15;6.68;;;6.05;;
80229;SDS011;69540;42.136;24.742;2023-07-24T08:13:41;6.10;;;5.50;;
80229;SDS011;69540;42.136;24.742;2023-07-24T08:16:17;6.97;;;5.78;;
80229;SDS011;69540;42.136;24.742;2023-07-24T08:18:46;6.40;;;5.80;;
80229;SDS011;69540;42.136;24.742;2023-07-24T08:21:12;5.93;;;5.43;;
80229;SDS011;69540;42.136;24.742;2023-07-24T08:23:39;6.50;;;5.50;;
80229;SDS011;69540;42.136;24.742;2023-07-24T08:26:05;6.35;;;5.75;;
80229;SDS011;69540;42.136;24.742;2023-07-24T08:28:31;7.93;;;5.85;;
80229;SDS011;69540;42.136;24.742;2023-07-24T08:30:57;6.15;;;5.55;;
80229;SDS011;69540;42.136;24.742;2023-07-24T08:33:23;6.13;;;5.50;;
80229;SDS011;69540;42.136;24.742;2023-07-24T08:36:02;6.00;;;5.40;;
80229;SDS011;69540;42.136;24.742;2023-07-24T08:38:29;6.93;;;5.47;;
80229;SDS011;69540;42.136;24.742;2023-07-24T08:43:29;7.30;;;5.65;;
80229;SDS011;69540;42.136;24.742;2023-07-24T08:45:55;5.85;;;5.22;;
80229;SDS011;69540;42.136;24.742;2023-07-24T08:48:23;5.63;;;5.10;;
80229;SDS011;69540;42.136;24.742;2023-07-24T08:50:50;7.00;;;5.75;;
80229;SDS011;69540;42.136;24.742;2023-07-24T08:53:18;6.03;;;5.43;;
80229;SDS011;69540;42.136;24.742;2023-07-24T08:55:45;6.20;;;5.60;;
80229;SDS011;69540;42.136;24.742;2023-07-24T08:58:14;6.57;;;5.72;;
80229;SDS011;69540;42.136;24.742;2023-07-24T09:00:41;6.88;;;5.90;;
80229;SDS011;69540;42.136;24.742;2023-07-24T09:03:07;6.45;;;5.40;;
80229;SDS011;69540;42.136;24.742;2023-07-24T09:05:33;5.78;;;5.25;;
80229;SDS011;69540;42.136;24.742;2023-07-24T09:07:58;6.45;;;5.85;;
80229;SDS011;69540;42.136;24.742;2023-07-24T09:10:24;7.25;;;5.28;;
80229;SDS011;69540;42.136;24.742;2023-07-24T09:12:51;5.60;;;5.10;;
80229;SDS011;69540;42.136;24.742;2023-07-24T09:15:17;6.57;;;5.35;;
80229;SDS011;69540;42.136;24.742;2023-07-24T09:17:49;6.80;;;5.68;;
80229;SDS011;69540;42.136;24.742;2023-07-24T09:20:16;6.07;;;5.28;;
80229;SDS011;69540;42.136;24.742;2023-07-24T09:22:49;6.57;;;5.50;;
80229;SDS011;69540;42.136;24.742;2023-07-24T09:25:16;6.63;;;5.40;;
80229;SDS011;69540;42.136;24.742;2023-07-24T09:27:41;5.80;;;5.20;;
80229;SDS011;69540;42.136;24.742;2023-07-24T09:30:13;6.60;;;5.70;;
80229;SDS011;69540;42.136;24.742;2023-07-24T09:32:39;6.03;;;5.22;;
80229;SDS011;69540;42.136;24.742;2023-07-24T09:35:27;5.35;;;4.85;;
80229;SDS011;69540;42.136;24.742;2023-07-24T09:38:03;5.65;;;5.10;;
80229;SDS011;69540;42.136;24.742;2023-07-24T09:40:37;5.60;;;5.10;;
80229;SDS011;69540;42.136;24.742;2023-07-24T09:45:42;7.20;;;5.57;;
80229;SDS011;69540;42.136;24.742;2023-07-24T09:48:09;5.40;;;4.90;;
80229;SDS011;69540;42.136;24.742;2023-07-24T09:50:39;6.28;;;5.10;;
80229;SDS011;69540;42.136;24.742;2023-07-24T09:53:13;5.60;;;5.00;;
80229;SDS011;69540;42.136;24.742;2023-07-24T09:55:52;6.38;;;5.30;;
80229;SDS011;69540;42.136;24.742;2023-07-24T09:58:25;5.43;;;4.93;;
80229;SDS011;69540;42.136;24.742;2023-07-24T10:00:51;4.93;;;4.53;;
80229;SDS011;69540;42.136;24.742;2023-07-24T10:03:18;6.53;;;5.20;;
80229;SDS011;69540;42.136;24.742;2023-07-24T10:05:45;5.53;;;5.03;;
80229;SDS011;69540;42.136;24.742;2023-07-24T10:08:12;5.65;;;5.15;;
80229;SDS011;69540;42.136;24.742;2023-07-24T10:10:42;5.68;;;4.60;;
80229;SDS011;69540;42.136;24.742;2023-07-24T10:13:08;6.68;;;4.90;;
80229;SDS011;69540;42.136;24.742;2023-07-24T10:15:39;5.88;;;5.22;;
80229;SDS011;69540;42.136;24.742;2023-07-24T10:18:09;7.40;;;5.13;;
80229;SDS011;69540;42.136;24.742;2023-07-24T10:20:39;6.13;;;4.88;;
80229;SDS011;69540;42.136;24.742;2023-07-24T10:23:06;5.93;;;5.03;;
80229;SDS011;69540;42.136;24.742;2023-07-24T10:25:34;5.80;;;4.90;;
80229;SDS011;69540;42.136;24.742;2023-07-24T10:28:12;5.07;;;4.57;;
80229;SDS011;69540;42.136;24.742;2023-07-24T10:30:38;5.97;;;5.38;;
80229;SDS011;69540;42.136;24.742;2023-07-24T10:33:08;5.40;;;4.88;;
80229;SDS011;69540;42.136;24.742;2023-07-24T10:35:42;5.32;;;4.88;;
80229;SDS011;69540;42.136;24.742;2023-07-24T10:38:10;5.68;;;5.07;;
80229;SDS011;69540;42.136;24.742;2023-07-24T10:40:39;5.30;;;4.28;;
80229;SDS011;69540;42.136;24.742;2023-07-24T10:48:27;4.85;;;4.45;;
80229;SDS011;69540;42.136;24.742;2023-07-24T10:50:52;5.50;;;4.97;;
80229;SDS011;69540;42.136;24.742;2023-07-24T10:53:19;5.15;;;4.65;;
80229;SDS011;69540;42.136;24.742;2023-07-24T10:55:46;5.13;;;4.63;;
80229;SDS011;69540;42.136;24.742;2023-07-24T10:58:12;4.82;;;4.43;;
80229;SDS011;69540;42.136;24.742;2023-07-24T11:00:39;5.10;;;4.57;;
80229;SDS011;69540;42.136;24.742;2023-07-24T11:03:12;6.53;;;4.78;;
80229;SDS011;69540;42.136;24.742;2023-07-24T11:05:39;5.53;;;4.50;;
80229;SDS011;69540;42.136;24.742;2023-07-24T11:08:12;5.63;;;4.97;;
80229;SDS011;69540;42.136;24.742;2023-07-24T11:10:59;5.50;;;4.28;;
80229;SDS011;69540;42.136;24.742;2023-07-24T11:13:26;5.32;;;4.57;;
80229;SDS011;69540;42.136;24.742;2023-07-24T11:15:53;5.55;;;4.32;;
80229;SDS011;69540;42.136;24.742;2023-07-24T11:18:20;5.32;;;4.80;;
80229;SDS011;69540;42.136;24.742;2023-07-24T11:20:51;5.32;;;4.68;;
80229;SDS011;69540;42.136;24.742;2023-07-24T11:23:18;5.47;;;4.80;;
80229;SDS011;69540;42.136;24.742;2023-07-24T11:25:45;4.75;;;4.35;;
80229;SDS011;69540;42.136;24.742;2023-07-24T11:28:11;5.00;;;4.50;;
80229;SDS011;69540;42.136;24.742;2023-07-24T11:30:39;4.95;;;4.47;;
80229;SDS011;69540;42.136;24.742;2023-07-24T11:33:06;4.85;;;4.45;;
80229;SDS011;69540;42.136;24.742;2023-07-24T11:35:34;5.00;;;4.50;;
80229;SDS011;69540;42.136;24.742;2023-07-24T11:38:00;5.57;;;4.65;;
80229;SDS011;69540;42.136;24.742;2023-07-24T11:43:23;4.35;;;3.95;;
80229;SDS011;69540;42.136;24.742;2023-07-24T11:45:50;8.88;;;4.60;;
80229;SDS011;69540;42.136;24.742;2023-07-24T11:48:17;5.72;;;4.50;;
80229;SDS011;69540;42.136;24.742;2023-07-24T11:50:50;4.68;;;4.22;;
80229;SDS011;69540;42.136;24.742;2023-07-24T11:53:18;4.78;;;4.28;;
80229;SDS011;69540;42.136;24.742;2023-07-24T11:55:45;6.47;;;4.90;;
80229;SDS011;69540;42.136;24.742;2023-07-24T11:58:14;5.18;;;4.68;;
80229;SDS011;69540;42.136;24.742;2023-07-24T12:00:40;4.97;;;4.53;;
80229;SDS011;69540;42.136;24.742;2023-07-24T12:03:08;4.65;;;4.20;;
80229;SDS011;69540;42.136;24.742;2023-07-24T12:05:37;5.15;;;4.32;;
80229;SDS011;69540;42.136;24.742;2023-07-24T12:08:04;4.80;;;4.30;;
80229;SDS011;69540;42.136;24.742;2023-07-24T12:10:29;4.50;;;4.10;;
80229;SDS011;69540;42.136;24.742;2023-07-24T12:12:57;4.95;;;4.35;;
80229;SDS011;69540;42.136;24.742;2023-07-24T12:15:27;5.80;;;4.47;;
80229;SDS011;69540;42.136;24.742;2023-07-24T12:17:53;4.90;;;4.40;;
80229;SDS011;69540;42.136;24.742;2023-07-24T12:20:19;4.60;;;4.20;;
80229;SDS011;69540;42.136;24.742;2023-07-24T12:22:44;4.75;;;4.25;;
80229;SDS011;69540;42.136;24.742;2023-07-24T12:25:11;4.88;;;4.03;;
80229;SDS011;69540;42.136;24.742;2023-07-24T12:27:36;4.50;;;4.10;;
80229;SDS011;69540;42.136;24.742;2023-07-24T12:30:04;5.38;;;4.55;;
80229;SDS011;69540;42.136;24.742;2023-07-24T12:32:31;5.97;;;4.30;;
80229;SDS011;69540;42.136;24.742;2023-07-24T12:34:57;4.72;;;4.22;;
80229;SDS011;69540;42.136;24.742;2023-07-24T12:37:22;6.18;;;4.45;;
80229;SDS011;69540;42.136;24.742;2023-07-24T12:39:48;4.93;;;4.53;;
80229;SDS011;69540;42.136;24.742;2023-07-24T12:42:14;5.68;;;4.05;;
80229;SDS011;69540;42.136;24.742;2023-07-24T12:44:41;4.68;;;4.25;;
80229;SDS011;69540;42.136;24.742;2023-07-24T12:47:07;4.95;;;4.35;;
80229;SDS011;69540;42.136;24.742;2023-07-24T12:49:33;4.93;;;4.15;;
80229;SDS011;69540;42.136;24.742;2023-07-24T12:51:59;4.85;;;4.38;;
80229;SDS011;69540;42.136;24.742;2023-07-24T12:54:24;5.03;;;4.15;;
80229;SDS011;69540;42.136;24.742;2023-07-24T12:56:50;4.93;;;4.43;;
80229;SDS011;69540;42.136;24.742;2023-07-24T12:59:17;4.70;;;4.30;;
80229;SDS011;69540;42.136;24.742;2023-07-24T13:01:43;5.57;;;4.50;;
80229;SDS011;69540;42.136;24.742;2023-07-24T13:04:10;4.60;;;4.18;;
80229;SDS011;69540;42.136;24.742;2023-07-24T13:06:36;4.82;;;4.03;;
80229;SDS011;69540;42.136;24.742;2023-07-24T13:09:01;4.68;;;4.28;;
80229;SDS011;69540;42.136;24.742;2023-07-24T13:11:27;4.70;;;4.20;;
80229;SDS011;69540;42.136;24.742;2023-07-24T13:13:54;5.30;;;4.32;;
80229;SDS011;69540;42.136;24.742;2023-07-24T13:16:20;5.82;;;4.15;;
80229;SDS011;69540;42.136;24.742;2023-07-24T13:18:45;4.40;;;4.00;;
80229;SDS011;69540;42.136;24.742;2023-07-24T13:21:11;5.63;;;4.30;;
80229;SDS011;69540;42.136;24.742;2023-07-24T13:23:37;7.95;;;4.63;;
80229;SDS011;69540;42.136;24.742;2023-07-24T13:26:02;4.68;;;4.15;;
80229;SDS011;69540;42.136;24.742;2023-07-24T13:28:28;4.70;;;4.20;;
80229;SDS011;69540;42.136;24.742;2023-07-24T13:30:54;5.28;;;3.97;;
80229;SDS011;69540;42.136;24.742;2023-07-24T13:33:20;5.10;;;4.40;;
80229;SDS011;69540;42.136;24.742;2023-07-24T13:35:47;5.70;;;4.20;;
80229;SDS011;69540;42.136;24.742;2023-07-24T13:38:13;4.57;;;4.05;;
80229;SDS011;69540;42.136;24.742;2023-07-24T13:40:39;4.78;;;4.25;;
80229;SDS011;69540;42.136;24.742;2023-07-24T13:43:05;5.80;;;4.20;;
80229;SDS011;69540;42.136;24.742;2023-07-24T13:45:31;5.30;;;4.18;;
80229;SDS011;69540;42.136;24.742;2023-07-24T13:47:57;4.57;;;4.18;;
80229;SDS011;69540;42.136;24.742;2023-07-24T13:50:23;4.68;;;4.25;;
80229;SDS011;69540;42.136;24.742;2023-07-24T13:52:49;4.03;;;3.70;;
80229;SDS011;69540;42.136;24.742;2023-07-24T13:55:15;4.55;;;4.00;;
80229;SDS011;69540;42.136;24.742;2023-07-24T13:57:41;4.38;;;3.97;;
80229;SDS011;69540;42.136;24.742;2023-07-24T14:00:06;4.38;;;3.97;;
80229;SDS011;69540;42.136;24.742;2023-07-24T14:02:32;4.90;;;3.70;;
80229;SDS011;69540;42.136;24.742;2023-07-24T14:04:58;5.68;;;4.30;;
80229;SDS011;69540;42.136;24.742;2023-07-24T14:07:24;4.50;;;4.10;;
80229;SDS011;69540;42.136;24.742;2023-07-24T14:09:51;4.60;;;3.85;;
80229;SDS011;69540;42.136;24.742;2023-07-24T14:12:17;4.43;;;3.95;;
80229;SDS011;69540;42.136;24.742;2023-07-24T14:14:42;4.70;;;3.88;;
80229;SDS011;69540;42.136;24.742;2023-07-24T14:17:08;6.88;;;4.38;;
80229;SDS011;69540;42.136;24.742;2023-07-24T14:19:33;4.60;;;4.20;;
80229;SDS011;69540;42.136;24.742;2023-07-24T14:21:59;5.72;;;4.53;;
80229;SDS011;69540;42.136;24.742;2023-07-24T14:24:26;5.78;;;4.13;;
80229;SDS011;69540;42.136;24.742;2023-07-24T14:26:52;4.18;;;3.88;;
80229;SDS011;69540;42.136;24.742;2023-07-24T14:29:17;4.88;;;4.13;;
80229;SDS011;69540;42.136;24.742;2023-07-24T14:31:43;4.15;;;3.78;;
80229;SDS011;69540;42.136;24.742;2023-07-24T14:34:09;4.53;;;4.13;;
80229;SDS011;69540;42.136;24.742;2023-07-24T14:36:37;5.30;;;4.18;;
80229;SDS011;69540;42.136;24.742;2023-07-24T14:39:03;5.05;;;4.10;;
80229;SDS011;69540;42.136;24.742;2023-07-24T14:41:29;5.00;;;3.95;;
80229;SDS011;69540;42.136;24.742;2023-07-24T14:43:55;4.70;;;4.05;;
80229;SDS011;69540;42.136;24.742;2023-07-24T14:46:21;6.32;;;4.38;;
80229;SDS011;69540;42.136;24.742;2023-07-24T14:48:46;4.05;;;3.75;;